Latest Weather Observations for South Channel Island

IDV60901

Issued at 1:11 am EDT Monday 26 October 2020 (issued every 10 minutes, with the page automatically refreshed every 10 minutes)

About weather observations | Map of Melbourne area stations | Latest observations for Melbourne area | Other Formats
Station Details ID: 086344 Name: SOUTH CHANNEL ISLAND Lat: -38.31 Lon: 144.80 Height: 9.0 m
Data from the previous 72 hours. | See also: Recent months at South Channel Island
Date/Time
EDT
Temp
°C
App
Temp
°C
Dew
Point
°C
Rel
Hum
%
Delta-T
°C
Wind Press
QNH
hPa
Press
MSL
hPa
Rain since
9am
mm
Dir  Spd
km/h
Gust
km/h
Spd
kts
Gust
kts
26/01:00am - - - - - ESE 43 54 23 29 - - -
26/12:30am - - - - - ESE 46 56 25 30 - - -
26/12:00am - - - - - ESE 50 59 27 32 - - -
 
Date/Time
EDT
Temp
°C
App
Temp
°C
Dew
Point
°C
Rel
Hum
%
Delta-T
°C
Wind Press
QNH
hPa
Press
MSL
hPa
Rain since
9am
mm
Dir  Spd
km/h
Gust
km/h
Spd
kts
Gust
kts
25/11:30pm - - - - - ESE 50 59 27 32 - - -
25/11:00pm - - - - - ESE 52 63 28 34 - - -
25/10:30pm - - - - - ESE 54 61 29 33 - - -
25/10:00pm - - - - - ESE 52 61 28 33 - - -
25/09:30pm - - - - - ESE 57 69 31 37 - - -
25/09:00pm - - - - - ESE 46 56 25 30 - - -
25/08:30pm - - - - - ESE 43 52 23 28 - - -
25/08:19pm - - - - - SE 35 56 19 30 - - -
25/08:00pm - - - - - SE 30 37 16 20 - - -
25/07:30pm - - - - - ESE 28 35 15 19 - - -
25/07:03pm - - - - - ESE 43 57 23 31 - - -
25/07:00pm - - - - - SE 41 50 22 27 - - -
25/06:30pm - - - - - SE 41 52 22 28 - - -
25/06:00pm - - - - - SE 46 54 25 29 - - -
25/05:30pm - - - - - SE 52 57 28 31 - - -
25/05:00pm - - - - - SE 48 59 26 32 - - -
25/04:30pm - - - - - SE 48 56 26 30 - - -
25/04:00pm - - - - - SE 48 57 26 31 - - -
25/03:30pm - - - - - ESE 43 54 23 29 - - -
25/03:00pm - - - - - SE 46 54 25 29 - - -
25/02:30pm - - - - - SE 43 50 23 27 - - -
25/02:00pm - - - - - SE 39 44 21 24 - - -
25/01:30pm - - - - - SE 39 50 21 27 - - -
25/01:00pm - - - - - SE 44 50 24 27 - - -
25/12:32pm - - - - - SE 28 48 15 26 - - -
25/12:30pm - - - - - SSE 24 41 13 22 - - -
25/12:00pm - - - - - SE 35 44 19 24 - - -
25/11:30am - - - - - SSE 46 56 25 30 - - -
25/11:00am - - - - - SSE 41 52 22 28 - - -
25/10:30am - - - - - SSE 35 44 19 24 - - -
25/10:00am - - - - - SSE 39 50 21 27 - - -
25/09:30am - - - - - SSE 46 56 25 30 - - -
25/09:00am - - - - - S 46 57 25 31 - - -
25/08:30am - - - - - SSE 52 61 28 33 - - -
25/08:00am - - - - - S 54 61 29 33 - - -
25/07:30am - - - - - S 50 63 27 34 - - -
25/07:00am - - - - - S 46 57 25 31 - - -
25/06:41am - - - - - SSE 43 56 23 30 - - -
25/06:30am - - - - - SSE 43 57 23 31 - - -
25/06:00am - - - - - S 52 59 28 32 - - -
25/05:30am - - - - - S 43 57 23 31 - - -
25/05:01am - - - - - SSE 44 63 24 34 - - -
25/05:00am - - - - - SSE 46 63 25 34 - - -
25/04:30am - - - - - S 41 50 22 27 - - -
25/04:10am - - - - - S 35 54 19 29 - - -
25/04:00am - - - - - S 32 37 17 20 - - -
25/03:49am - - - - - SSE 48 67 26 36 - - -
25/03:30am - - - - - S 44 56 24 30 - - -
25/03:00am - - - - - S 48 59 26 32 - - -
25/02:30am - - - - - S 48 56 26 30 - - -
25/02:00am - - - - - S 48 56 26 30 - - -
25/01:30am - - - - - S 52 57 28 31 - - -
25/01:00am - - - - - SSW 48 56 26 30 - - -
25/12:30am - - - - - S 48 56 26 30 - - -
25/12:00am - - - - - SSW 44 52 24 28 - - -
 
Date/Time
EDT
Temp
°C
App
Temp
°C
Dew
Point
°C
Rel
Hum
%
Delta-T
°C
Wind Press
QNH
hPa
Press
MSL
hPa
Rain since
9am
mm
Dir  Spd
km/h
Gust
km/h
Spd
kts
Gust
kts
24/11:30pm - - - - - SSW 52 59 28 32 - - -
24/11:05pm - - - - - SSW 41 59 22 32 - - -
24/11:00pm - - - - - SSW 39 48 21 26 - - -
24/10:30pm - - - - - SSW 44 56 24 30 - - -
24/10:00pm - - - - - SSW 37 44 20 24 - - -
24/09:30pm - - - - - SSW 39 48 21 26 - - -
24/09:00pm - - - - - SSW 43 50 23 27 - - -
24/08:30pm - - - - - SW 41 50 22 27 - - -
24/08:00pm - - - - - SW 39 46 21 25 - - -
24/07:30pm - - - - - SSW 41 48 22 26 - - -
24/07:00pm - - - - - SSW 46 54 25 29 - - -
24/06:30pm - - - - - SW 43 50 23 27 - - -
24/06:00pm - - - - - SSW 44 54 24 29 - - -
24/05:30pm - - - - - SSW 50 57 27 31 - - -
24/05:00pm - - - - - SSW 48 57 26 31 - - -
24/04:30pm - - - - - SW 54 69 29 37 - - -
24/04:00pm - - - - - SSW 52 61 28 33 - - -
24/03:30pm - - - - - SSW 52 61 28 33 - - -
24/03:00pm - - - - - SSW 44 52 24 28 - - -
24/02:30pm - - - - - SSW 44 59 24 32 - - -
24/02:00pm - - - - - SSW 41 56 22 30 - - -
24/01:30pm - - - - - SSW 37 46 20 25 - - -
24/01:00pm - - - - - SSW 43 50 23 27 - - -
24/12:30pm - - - - - SSW 43 50 23 27 - - -
24/12:00pm - - - - - SSW 37 43 20 23 - - -
24/11:30am - - - - - SSW 35 43 19 23 - - -
24/11:00am - - - - - SSW 37 44 20 24 - - -
24/10:30am - - - - - SSW 35 43 19 23 - - -
24/10:00am - - - - - SSW 43 50 23 27 - - -
24/09:30am - - - - - SSW 44 54 24 29 - - -
24/09:00am - - - - - SSW 46 56 25 30 - - -
24/08:30am - - - - - SSW 44 57 24 31 - - -
24/08:00am - - - - - SSW 37 43 20 23 - - -
24/07:30am - - - - - SSW 46 56 25 30 - - -
24/07:00am - - - - - SSW 48 56 26 30 - - -
24/06:30am - - - - - SSW 48 56 26 30 - - -
24/06:00am - - - - - SSW 46 54 25 29 - - -
24/05:30am - - - - - S 37 41 20 22 - - -
24/05:00am - - - - - SSW 43 52 23 28 - - -
24/04:30am - - - - - SSW 32 37 17 20 - - -
24/04:00am - - - - - S 37 41 20 22 - - -
24/03:30am - - - - - S 37 43 20 23 - - -
24/03:00am - - - - - SSW 32 37 17 20 - - -
24/02:30am - - - - - S 28 32 15 17 - - -
24/02:00am - - - - - S 24 26 13 14 - - -
24/01:30am - - - - - S 22 26 12 14 - - -
24/01:00am - - - - - S 24 28 13 15 - - -
24/12:30am - - - - - SSE 26 30 14 16 - - -
24/12:00am - - - - - SSE 26 30 14 16 - - -
 
Date/Time
EDT
Temp
°C
App
Temp
°C
Dew
Point
°C
Rel
Hum
%
Delta-T
°C
Wind Press
QNH
hPa
Press
MSL
hPa
Rain since
9am
mm
Dir  Spd
km/h
Gust
km/h
Spd
kts
Gust
kts
23/11:30pm - - - - - S 26 28 14 15 - - -
23/11:00pm - - - - - S 28 30 15 16 - - -
23/10:30pm - - - - - SW 32 35 17 19 - - -
23/10:00pm - - - - - WSW 20 26 11 14 - - -
23/09:30pm - - - - - S 13 17 7 9 - - -
23/09:00pm - - - - - SSW 15 17 8 9 - - -
23/08:30pm - - - - - S 15 15 8 8 - - -
23/08:00pm - - - - - SW 17 17 9 9 - - -
23/07:30pm - - - - - WSW 15 15 8 8 - - -
23/07:00pm - - - - - WSW 13 15 7 8 - - -
23/06:30pm - - - - - WSW 19 20 10 11 - - -
23/06:00pm - - - - - W 15 15 8 8 - - -
23/05:30pm - - - - - SSW 7 9 4 5 - - -
23/05:00pm - - - - - SSW 9 11 5 6 - - -
23/04:30pm - - - - - S 11 13 6 7 - - -
23/04:00pm - - - - - NE 4 7 2 4 - - -
23/03:30pm - - - - - NNW 4 7 2 4 - - -
23/03:00pm - - - - - WNW 17 20 9 11 - - -
23/02:30pm - - - - - WNW 9 11 5 6 - - -
23/02:00pm - - - - - WNW 9 9 5 5 - - -
23/01:30pm - - - - - NW 9 15 5 8 - - -
23/01:00pm - - - - - E 13 19 7 10 - - -
23/12:30pm - - - - - WNW 9 13 5 7 - - -
23/12:00pm - - - - - WNW 13 15 7 8 - - -
23/11:30am - - - - - NW 11 11 6 6 - - -
23/11:00am - - - - - NNE 11 11 6 6 - - -
23/10:30am - - - - - NE 13 17 7 9 - - -
23/10:00am - - - - - SSE 9 11 5 6 - - -
23/09:30am - - - - - S 20 22 11 12 - - -
23/09:00am - - - - - S 17 22 9 12 - - -
23/08:30am - - - - - SE 20 26 11 14 - - -
23/08:00am - - - - - SE 17 19 9 10 - - -
23/07:30am - - - - - SSE 6 7 3 4 - - -
23/07:00am - - - - - ESE 15 17 8 9 - - -
23/06:30am - - - - - NE 9 11 5 6 - - -
23/06:00am - - - - - NNW 4 7 2 4 - - -
23/05:30am - - - - - N 13 13 7 7 - - -
23/05:00am - - - - - NNE 13 15 7 8 - - -
23/04:30am - - - - - NNE 17 19 9 10 - - -
23/04:00am - - - - - NE 15 19 8 10 - - -
23/03:30am - - - - - NNE 19 24 10 13 - - -
23/03:00am - - - - - NE 24 30 13 16 - - -
23/02:30am - - - - - NE 15 19 8 10 - - -
23/02:00am - - - - - E 13 15 7 8 - - -
23/01:30am - - - - - ESE 9 15 5 8 - - -

Latest Capital City Observations: Canberra | Sydney | Melbourne | Brisbane | Adelaide | Perth | Hobart | Darwin

Other formats

Comma delimited format used in spreadsheet applications
http://www.bom.gov.au/fwo/IDV60901/IDV60901.94853.axf

JavaScript Object Notation format (JSON) in row-major order
http://www.bom.gov.au/fwo/IDV60901/IDV60901.94853.json

Data quality

Most of these data are generated automatically and are frequently updated. Quality checks on data are not normally performed. It is possible for incorrect values to appear. Refer to information at About Latest Weather Observations and please check the disclaimer before using these data.